Time;durP1;ratioP1;P1;durP2;ratioP2;P2;SDS_P1;SDS_P2;PMS_P1;PMS_P2;Temp;Humidity;BMP_temperature;BMP_pressure;BME280_temperature;BME280_humidity;BME280_pressure;Samples;Min_cycle;Max_cycle;Signal;HPM_P1;HPM_P2
2023/04/16 00:02:36;;;;;;;114.43;46.35;;;;;;;6.29;100.00;102049.66;10279096;28;20057;-71
2023/04/16 00:07:36;;;;;;;96.50;43.00;;;;;;;6.21;100.00;102053.38;10264893;28;20058;-71
2023/04/16 00:12:37;;;;;;;111.35;46.30;;;;;;;6.12;100.00;102055.41;10251493;28;20125;-71
2023/04/16 00:17:38;;;;;;;116.68;46.05;;;;;;;6.08;100.00;102054.09;10295945;28;20034;-71
2023/04/16 00:22:39;;;;;;;109.15;47.00;;;;;;;6.02;100.00;102065.81;10272659;28;21221;-71
2023/04/16 00:27:41;;;;;;;118.78;47.15;;;;;;;6.04;100.00;102059.09;10259617;28;20050;-71
2023/04/16 00:32:41;;;;;;;106.47;44.53;;;;;;;5.96;100.00;102056.50;10255179;28;20054;-71
2023/04/16 00:37:42;;;;;;;114.00;45.85;;;;;;;5.86;100.00;102056.78;10257391;28;20046;-71
2023/04/16 00:42:42;;;;;;;118.75;47.35;;;;;;;5.75;100.00;102060.03;10214981;28;20066;-71
2023/04/16 00:47:43;;;;;;;112.90;45.88;;;;;;;5.61;100.00;102050.00;10251485;28;20508;-71
2023/04/16 00:52:46;;;;;;;112.05;47.35;;;;;;;5.66;100.00;102061.19;10240983;28;20126;-71
2023/04/16 00:57:46;;;;;;;121.68;46.28;;;;;;;5.68;100.00;102075.50;10253105;28;20063;-70
2023/04/16 01:02:46;;;;;;;127.20;47.75;;;;;;;5.73;100.00;102074.94;10224502;28;20035;-71
2023/04/16 01:07:48;;;;;;;127.63;49.63;;;;;;;5.77;100.00;102071.63;10234289;29;20094;-70
2023/04/16 01:12:49;;;;;;;130.25;49.67;;;;;;;5.75;100.00;102079.16;10237846;28;20054;-71
2023/04/16 01:17:49;;;;;;;140.07;49.10;;;;;;;5.72;100.00;102076.81;10234659;28;20051;-70
2023/04/16 01:22:50;;;;;;;143.60;50.88;;;;;;;5.91;100.00;102090.88;10248703;28;20055;-71
2023/04/16 01:27:53;;;;;;;165.13;57.60;;;;;;;6.02;100.00;102087.69;10220651;28;20039;-70
2023/04/16 01:32:54;;;;;;;200.68;56.55;;;;;;;6.15;100.00;102096.00;10250737;28;20051;-71
2023/04/16 01:37:54;;;;;;;268.80;62.42;;;;;;;5.02;100.00;101907.13;10240759;28;20043;-71
2023/04/16 01:42:55;;;;;;;278.38;60.60;;;;;;;6.34;100.00;102090.94;10230670;28;20047;-71
2023/04/16 01:47:55;;;;;;;221.38;59.92;;;;;;;6.40;100.00;102095.63;10278238;28;24754;-71
2023/04/16 01:52:56;;;;;;;329.92;70.28;;;;;;;6.50;100.00;102101.59;10283620;28;20035;-70
2023/04/16 01:57:56;;;;;;;278.20;65.82;;;;;;;6.56;100.00;102102.72;10278187;28;20043;-70
2023/04/16 02:02:57;;;;;;;232.52;66.95;;;;;;;6.56;100.00;102100.81;10297621;28;20031;-71
2023/04/16 02:07:57;;;;;;;281.58;68.78;;;;;;;6.60;100.00;102093.91;10280880;28;20035;-68
2023/04/16 02:12:58;;;;;;;282.58;66.13;;;;;;;6.62;100.00;102097.28;10246125;28;20086;-71
2023/04/16 02:17:58;;;;;;;274.98;67.63;;;;;;;6.63;100.00;102096.22;10239011;28;20066;-72
2023/04/16 02:22:59;;;;;;;272.65;67.85;;;;;;;6.63;100.00;102101.69;10274708;28;20050;-70
2023/04/16 02:28:00;;;;;;;288.85;70.15;;;;;;;6.65;100.00;102098.78;10247718;28;20043;-71
2023/04/16 02:33:02;;;;;;;221.30;62.45;;;;;;;6.61;100.00;102098.31;10264409;28;20063;-71
2023/04/16 02:38:03;;;;;;;232.77;67.07;;;;;;;6.61;100.00;102108.41;10257316;28;20050;-71
2023/04/16 02:43:03;;;;;;;237.65;63.67;;;;;;;6.53;100.00;102101.22;10313276;28;20039;-70
2023/04/16 02:48:06;;;;;;;203.52;63.58;;;;;;;6.56;100.00;102109.03;10294219;28;20047;-71
2023/04/16 02:53:06;;;;;;;191.60;62.50;;;;;;;6.54;100.00;102122.06;10263519;28;20043;-70
2023/04/16 02:58:07;;;;;;;199.18;62.78;;;;;;;6.49;100.00;102121.81;10264865;28;20050;-71
2023/04/16 03:03:07;;;;;;;171.07;57.88;;;;;;;6.43;100.00;102117.13;10317515;28;20049;-71
2023/04/16 03:08:08;;;;;;;165.25;59.38;;;;;;;6.37;100.00;102126.13;10283542;28;20511;-71
2023/04/16 03:13:08;;;;;;;183.82;58.75;;;;;;;6.30;100.00;102125.19;10255989;28;20043;-70
2023/04/16 03:18:09;;;;;;;194.90;60.70;;;;;;;6.23;100.00;102128.69;10271012;28;20035;-70
2023/04/16 03:23:09;;;;;;;205.40;60.30;;;;;;;6.23;100.00;102127.88;10277981;28;20073;-70
2023/04/16 03:28:10;;;;;;;153.07;56.92;;;;;;;6.24;100.00;102138.63;10239975;28;20042;-71
2023/04/16 03:33:10;;;;;;;162.68;56.38;;;;;;;6.25;100.00;102145.75;10256586;28;20120;-71
2023/04/16 03:38:11;;;;;;;171.45;57.55;;;;;;;6.28;100.00;102149.16;10244053;28;20073;-71
2023/04/16 03:43:11;;;;;;;191.05;58.63;;;;;;;6.20;100.00;102136.44;10238023;28;20035;-71
2023/04/16 03:48:13;;;;;;;173.88;58.10;;;;;;;6.27;100.00;102156.50;10253958;28;20067;-71
2023/04/16 03:53:14;;;;;;;177.20;60.53;;;;;;;6.25;100.00;102162.16;10251908;28;20042;-71
2023/04/16 03:58:15;;;;;;;165.77;58.28;;;;;;;6.29;100.00;102159.91;10252417;28;20038;-70
2023/04/16 04:03:16;;;;;;;172.52;59.30;;;;;;;6.33;100.00;102158.47;10245479;28;20057;-71
2023/04/16 04:08:17;;;;;;;157.18;59.15;;;;;;;6.34;100.00;102160.16;10270101;28;20101;-71
2023/04/16 04:13:17;;;;;;;164.63;59.85;;;;;;;6.39;100.00;102167.81;10291063;28;20532;-70
2023/04/16 04:18:18;;;;;;;143.25;57.75;;;;;;;6.40;100.00;102156.63;10226589;28;20070;-71
2023/04/16 04:23:19;;;;;;;166.27;60.72;;;;;;;6.37;100.00;102153.47;10251024;28;20035;-70
2023/04/16 04:28:19;;;;;;;141.77;58.47;;;;;;;6.36;100.00;102165.44;10269042;28;20040;-71
2023/04/16 04:33:20;;;;;;;141.88;58.17;;;;;;;6.29;100.00;102168.09;10246489;28;20110;-71
2023/04/16 04:38:24;;;;;;;150.43;61.70;;;;;;;6.32;100.00;102169.59;10242069;28;20043;-71
2023/04/16 04:43:24;;;;;;;145.52;58.78;;;;;;;6.38;100.00;102174.28;10252940;28;20031;-71
2023/04/16 04:48:25;;;;;;;135.68;57.25;;;;;;;6.36;100.00;102179.13;10279075;28;20439;-71
2023/04/16 04:53:25;;;;;;;143.38;57.28;;;;;;;6.25;100.00;102175.00;10277047;28;20050;-71
2023/04/16 04:58:26;;;;;;;142.23;55.92;;;;;;;6.16;100.00;102179.75;10251316;28;20491;-71
2023/04/16 05:03:26;;;;;;;150.27;58.90;;;;;;;5.99;100.00;102161.88;10255460;28;20049;-71
2023/04/16 05:08:27;;;;;;;144.23;62.97;;;;;;;6.06;100.00;102181.94;10247928;28;20043;-71
2023/04/16 05:13:27;;;;;;;141.90;61.30;;;;;;;6.11;100.00;102179.47;10259235;28;20031;-71
2023/04/16 05:18:28;;;;;;;132.95;57.15;;;;;;;6.14;100.00;102184.56;10289160;28;20101;-71
2023/04/16 05:23:28;;;;;;;141.93;63.05;;;;;;;6.22;100.00;102194.53;10225682;28;20511;-71
2023/04/16 05:28:29;;;;;;;145.35;60.67;;;;;;;6.33;100.00;102198.66;10265600;28;20055;-71
2023/04/16 05:33:30;;;;;;;141.35;62.63;;;;;;;6.43;100.00;102196.47;10303728;28;20062;-71
2023/04/16 05:38:30;;;;;;;148.18;61.58;;;;;;;6.57;100.00;102205.63;10245252;28;20046;-71
2023/04/16 05:43:31;;;;;;;143.77;63.55;;;;;;;6.72;100.00;102205.56;10235288;28;20027;-72
2023/04/16 05:48:32;;;;;;;134.63;61.80;;;;;;;6.86;100.00;102221.94;10246197;28;20059;-71
2023/04/16 05:53:32;;;;;;;133.55;61.92;;;;;;;6.93;100.00;102205.56;10211259;28;20151;-69
2023/04/16 05:58:32;;;;;;;123.53;56.38;;;;;;;7.13;100.00;102224.03;10235304;28;20058;-71
2023/04/16 06:03:33;;;;;;;127.15;57.38;;;;;;;7.22;100.00;102226.44;10249086;28;20042;-72
2023/04/16 06:08:34;;;;;;;114.85;55.63;;;;;;;7.28;100.00;102235.75;10272802;28;20894;-71
2023/04/16 06:13:34;;;;;;;108.40;53.97;;;;;;;7.34;100.00;102234.97;10291225;28;20039;-71
2023/04/16 06:18:35;;;;;;;102.43;50.75;;;;;;;7.45;100.00;102236.28;10275019;28;20057;-71
2023/04/16 06:23:35;;;;;;;88.20;48.63;;;;;;;7.51;100.00;102242.88;10274743;28;20043;-71
2023/04/16 06:28:36;;;;;;;97.30;47.20;;;;;;;7.63;100.00;102253.06;10291453;28;20054;-70
2023/04/16 06:33:36;;;;;;;92.95;44.25;;;;;;;7.65;100.00;102259.22;10292222;28;20089;-70
2023/04/16 06:38:37;;;;;;;86.18;43.53;;;;;;;7.70;100.00;102266.81;10293489;28;20457;-71
2023/04/16 06:43:37;;;;;;;85.53;44.17;;;;;;;7.67;100.00;102267.22;10256356;28;20052;-71
2023/04/16 06:48:38;;;;;;;76.40;41.20;;;;;;;7.73;100.00;102282.88;10256835;28;20039;-71
2023/04/16 06:53:38;;;;;;;80.80;41.10;;;;;;;7.75;100.00;102269.81;10274169;28;20046;-71
2023/04/16 06:58:39;;;;;;;81.78;41.35;;;;;;;7.86;100.00;102279.38;10257866;28;20047;-70
2023/04/16 07:03:39;;;;;;;95.85;41.97;;;;;;;7.86;100.00;102274.72;10240331;28;20039;-71
2023/04/16 07:08:40;;;;;;;77.88;38.92;;;;;;;7.99;100.00;102286.81;10271938;28;20054;-71
2023/04/16 07:13:40;;;;;;;78.75;36.50;;;;;;;8.12;100.00;102280.53;10225191;28;20043;-70
2023/04/16 07:18:41;;;;;;;98.65;36.95;;;;;;;8.26;100.00;102288.63;10280061;28;20039;-69
2023/04/16 07:23:42;;;;;;;71.90;35.50;;;;;;;8.41;100.00;102290.41;10279486;28;25317;-71
2023/04/16 07:28:42;;;;;;;60.38;32.47;;;;;;;8.30;100.00;102275.34;10296299;28;20050;-70
2023/04/16 07:33:42;;;;;;;59.47;31.30;;;;;;;8.32;100.00;102289.72;10295659;28;20046;-71
2023/04/16 07:38:43;;;;;;;60.83;31.20;;;;;;;8.44;100.00;102292.75;10262531;28;20042;-71
2023/04/16 07:43:43;;;;;;;57.58;30.33;;;;;;;8.60;100.00;102295.13;10283189;28;20043;-70
2023/04/16 07:48:44;;;;;;;52.97;29.20;;;;;;;8.83;100.00;102297.53;10277276;28;20043;-69
2023/04/16 07:53:44;;;;;;;50.97;27.00;;;;;;;9.14;100.00;102303.50;10261418;28;20047;-71
2023/04/16 07:58:45;;;;;;;47.67;27.88;;;;;;;9.55;100.00;102310.66;10276499;28;20042;-70
2023/04/16 08:03:45;;;;;;;42.70;24.25;;;;;;;9.91;100.00;102310.22;10272563;28;20034;-70
2023/04/16 08:08:46;;;;;;;41.45;21.73;;;;;;;10.25;100.00;102309.06;10276625;28;20046;-70
2023/04/16 08:13:46;;;;;;;38.25;21.10;;;;;;;10.49;100.00;102301.16;10292036;28;20047;-70
2023/04/16 08:18:47;;;;;;;32.38;19.08;;;;;;;10.67;100.00;102306.78;10277119;28;20058;-70
2023/04/16 08:23:47;;;;;;;30.42;17.83;;;;;;;10.62;100.00;102298.34;10290113;28;20038;-70
2023/04/16 08:28:48;;;;;;;37.42;20.02;;;;;;;10.75;100.00;102304.84;10257779;28;20503;-70
2023/04/16 08:33:48;;;;;;;30.60;17.65;;;;;;;10.92;100.00;102297.75;10288555;28;20527;-70
2023/04/16 08:38:51;;;;;;;27.33;17.02;;;;;;;10.79;100.00;102243.59;10273898;28;20081;-70
2023/04/16 08:43:51;;;;;;;30.70;16.52;;;;;;;11.29;100.00;102297.91;10256173;28;20388;-70
2023/04/16 08:48:55;;;;;;;28.90;15.68;;;;;;;11.58;100.00;102301.06;10292548;28;20035;-70
2023/04/16 08:54:14;;;;;;;28.52;16.88;;;;;;;11.84;100.00;102300.78;10275541;28;20038;-70
2023/04/16 08:59:14;;;;;;;25.73;15.15;;;;;;;12.08;100.00;102304.59;10296975;28;20098;-70
2023/04/16 09:04:15;;;;;;;25.92;14.10;;;;;;;12.47;100.00;102315.41;10275296;28;20039;-70
2023/04/16 09:09:15;;;;;;;28.35;16.42;;;;;;;12.51;100.00;102316.63;10286232;28;20043;-70
2023/04/16 09:14:15;;;;;;;26.33;15.07;;;;;;;12.56;100.00;102315.94;10282825;28;20053;-71
2023/04/16 09:19:16;;;;;;;21.80;14.32;;;;;;;12.74;100.00;102312.31;10274280;28;20046;-71
2023/04/16 09:24:17;;;;;;;26.50;15.60;;;;;;;12.80;100.00;102297.56;10257794;28;20039;-70
2023/04/16 09:29:33;;;;;;;23.48;14.88;;;;;;;12.92;100.00;102312.25;10259789;28;20042;-70
2023/04/16 09:34:35;;;;;;;21.25;14.20;;;;;;;13.06;100.00;102313.75;10289275;28;20740;-70
2023/04/16 09:39:35;;;;;;;23.02;14.27;;;;;;;13.39;100.00;102314.31;10275814;28;20520;-70
2023/04/16 09:44:36;;;;;;;20.52;13.77;;;;;;;13.69;100.00;102317.84;10267714;28;20051;-69
2023/04/16 09:49:41;;;;;;;23.60;14.15;;;;;;;13.79;100.00;102313.63;10251105;28;20048;-71
2023/04/16 09:54:47;;;;;;;24.60;14.25;;;;;;;13.73;100.00;102319.03;10249852;28;20080;-71
2023/04/16 10:00:08;;;;;;;22.85;14.57;;;;;;;13.61;100.00;102311.81;10265746;28;20043;-70
2023/04/16 10:05:09;;;;;;;19.77;13.60;;;;;;;14.09;100.00;102316.25;10217084;28;20103;-70
2023/04/16 10:10:09;;;;;;;20.73;12.48;;;;;;;14.00;100.00;102313.03;10277159;28;20053;-70
2023/04/16 10:15:11;;;;;;;21.15;13.65;;;;;;;13.83;100.00;102312.91;10274781;28;20420;-70
2023/04/16 10:20:13;;;;;;;19.05;12.82;;;;;;;14.15;100.00;102320.00;10257129;28;20071;-70
2023/04/16 10:25:13;;;;;;;20.42;13.55;;;;;;;14.27;100.00;102324.41;10276984;28;20043;-69
2023/04/16 10:30:14;;;;;;;21.90;13.13;;;;;;;14.63;100.00;102311.31;10223029;28;20039;-71
2023/04/16 10:35:17;;;;;;;24.10;14.25;;;;;;;14.70;100.00;102312.03;10250636;28;20043;-71
2023/04/16 10:40:25;;;;;;;17.98;13.30;;;;;;;14.83;100.00;102310.06;10266456;28;20054;-71
2023/04/16 10:45:36;;;;;;;17.65;13.23;;;;;;;14.94;100.00;102309.16;10239623;28;20030;-71
2023/04/16 10:50:36;;;;;;;20.45;13.15;;;;;;;15.14;100.00;102312.31;10246869;28;20069;-73
2023/04/16 10:55:38;;;;;;;19.00;12.98;;;;;;;15.38;100.00;102295.53;10284820;28;20039;-71
2023/04/16 11:00:50;;;;;;;21.48;13.40;;;;;;;15.38;100.00;102301.06;10302017;28;21598;-71
2023/04/16 11:05:51;;;;;;;18.85;12.77;;;;;;;15.47;100.00;102282.91;10246351;28;20043;-76
2023/04/16 11:10:52;;;;;;;19.67;11.13;;;;;;;15.66;100.00;102290.97;10259294;28;20151;-75
2023/04/16 11:15:56;;;;;;;15.68;12.38;;;;;;;15.65;100.00;102284.56;10294815;28;20045;-76
2023/04/16 11:20:57;;;;;;;20.45;12.68;;;;;;;15.86;100.00;102294.06;10277931;28;20042;-76
2023/04/16 11:25:58;;;;;;;17.33;12.40;;;;;;;16.09;100.00;102289.41;10310676;28;20043;-76
2023/04/16 11:30:59;;;;;;;16.15;11.95;;;;;;;16.02;100.00;102283.16;10262666;28;20459;-75
2023/04/16 11:35:59;;;;;;;15.95;11.73;;;;;;;15.87;100.00;102300.47;10279492;28;20100;-74
2023/04/16 11:41:03;;;;;;;23.27;12.50;;;;;;;15.84;100.00;102296.25;10251933;28;20031;-74
2023/04/16 11:46:05;;;;;;;20.80;12.63;;;;;;;15.64;100.00;102298.69;10251806;28;20038;-75
2023/04/16 11:51:05;;;;;;;21.27;13.23;;;;;;;15.49;100.00;102289.03;10253073;28;20039;-74
2023/04/16 11:56:06;;;;;;;20.80;12.48;;;;;;;15.68;100.00;102313.75;10269794;28;20050;-74
2023/04/16 12:01:07;;;;;;;21.77;12.40;;;;;;;15.76;100.00;102313.34;10237900;28;20242;-74
2023/04/16 12:06:08;;;;;;;25.58;13.05;;;;;;;15.39;100.00;102275.00;10223079;28;20725;-75
2023/04/16 12:11:09;;;;;;;21.65;13.88;;;;;;;15.51;100.00;102327.66;10225236;28;20057;-74
2023/04/16 12:16:18;;;;;;;24.00;14.00;;;;;;;15.26;100.00;102319.72;10292540;28;20038;-75
2023/04/16 12:21:18;;;;;;;22.83;14.55;;;;;;;15.33;100.00;102331.50;10276494;28;20030;-74
2023/04/16 12:26:19;;;;;;;19.00;14.55;;;;;;;15.53;100.00;102337.41;10276374;28;20031;-74
2023/04/16 12:31:35;;;;;;;20.25;14.73;;;;;;;15.78;100.00;102321.44;10277327;28;20039;-74
2023/04/16 12:36:36;;;;;;;22.25;15.77;;;;;;;15.98;100.00;102312.56;10245387;28;20094;-74
2023/04/16 12:41:37;;;;;;;21.60;15.48;;;;;;;16.28;100.00;102309.38;10258510;28;20117;-74
2023/04/16 12:46:39;;;;;;;22.95;14.60;;;;;;;16.15;100.00;102316.16;10274471;28;20050;-75
2023/04/16 12:51:39;;;;;;;23.85;16.15;;;;;;;15.89;100.00;102321.31;10243597;28;20046;-74
2023/04/16 12:56:40;;;;;;;20.80;14.50;;;;;;;15.72;100.00;102321.34;10291214;28;20038;-74
2023/04/16 13:01:40;;;;;;;21.67;14.13;;;;;;;15.88;100.00;102319.66;10260786;28;20054;-77
2023/04/16 13:06:41;;;;;;;23.55;15.48;;;;;;;15.88;100.00;102327.16;10258626;28;20074;-75
2023/04/16 13:11:41;;;;;;;23.42;15.25;;;;;;;15.96;100.00;102334.19;10234902;28;20031;-76
2023/04/16 13:16:42;;;;;;;21.45;15.43;;;;;;;15.70;100.00;102331.84;10266212;28;20075;-76
2023/04/16 13:21:42;;;;;;;22.98;15.30;;;;;;;15.45;100.00;102326.72;10321373;28;20328;-77
2023/04/16 13:26:43;;;;;;;22.60;17.02;;;;;;;15.26;100.00;102328.88;10315106;28;20468;-75
2023/04/16 13:31:43;;;;;;;21.88;16.83;;;;;;;15.17;100.00;102321.22;10333036;28;20038;-75
2023/04/16 13:36:44;;;;;;;23.02;16.77;;;;;;;15.19;100.00;102324.59;10314433;28;20125;-76
2023/04/16 13:41:44;;;;;;;27.55;18.15;;;;;;;15.26;100.00;102320.56;10282131;28;20043;-76
2023/04/16 13:46:46;;;;;;;21.73;15.05;;;;;;;15.26;100.00;102325.28;10309887;28;20510;-75
2023/04/16 13:51:47;;;;;;;24.63;15.60;;;;;;;15.10;100.00;102333.31;10282333;28;20042;-76
2023/04/16 13:56:49;;;;;;;24.00;16.08;;;;;;;14.90;100.00;102339.34;10266655;28;20050;-75
2023/04/16 14:01:50;;;;;;;28.48;15.90;;;;;;;14.84;100.00;102331.13;10267600;28;20046;-75
2023/04/16 14:06:50;;;;;;;29.52;16.02;;;;;;;14.75;100.00;102329.88;10279332;28;20414;-75
2023/04/16 14:11:51;;;;;;;21.55;14.43;;;;;;;14.65;100.00;102323.00;10297213;28;20054;-76
2023/04/16 14:16:53;;;;;;;26.83;16.58;;;;;;;14.73;100.00;102317.06;10278709;28;20046;-76
2023/04/16 14:21:54;;;;;;;25.63;14.55;;;;;;;14.79;100.00;102251.50;10253822;28;20118;-74
2023/04/16 14:26:54;;;;;;;27.27;14.55;;;;;;;15.39;100.00;102313.84;10280773;28;20042;-74
2023/04/16 14:31:55;;;;;;;27.50;14.45;;;;;;;15.61;100.00;102313.94;10298120;28;20035;-75
2023/04/16 14:36:56;;;;;;;25.70;15.65;;;;;;;15.61;100.00;102316.72;10280235;28;20054;-75
2023/04/16 14:41:56;;;;;;;19.50;13.35;;;;;;;17.23;100.00;102309.06;10279648;28;20050;-76
2023/04/16 14:46:57;;;;;;;21.50;12.27;;;;;;;18.22;100.00;102287.22;10278879;28;20038;-76
2023/04/16 14:51:57;;;;;;;17.52;12.20;;;;;;;19.12;100.00;102279.41;10295851;28;20039;-76
2023/04/16 14:56:58;;;;;;;18.33;12.80;;;;;;;19.56;100.00;102284.41;10263990;28;20035;-76
2023/04/16 15:01:58;;;;;;;16.23;11.18;;;;;;;19.56;100.00;102289.16;10296875;28;20035;-76
2023/04/16 15:06:59;;;;;;;18.23;12.05;;;;;;;19.31;100.00;102267.69;10275395;28;20039;-78
2023/04/16 15:11:59;;;;;;;17.35;11.65;;;;;;;20.02;100.00;102279.88;10239970;28;20039;-75
2023/04/16 15:17:00;;;;;;;20.45;11.68;;;;;;;19.60;100.00;102293.06;10254573;28;20292;-75
2023/04/16 15:22:00;;;;;;;19.48;11.73;;;;;;;19.37;100.00;102283.31;10239368;28;20035;-76
2023/04/16 15:27:01;;;;;;;17.70;12.00;;;;;;;18.20;100.00;102290.28;10256941;28;20027;-75
2023/04/16 15:32:02;;;;;;;18.88;12.18;;;;;;;17.59;100.00;102314.91;10255972;28;20106;-75
2023/04/16 15:37:02;;;;;;;23.35;13.13;;;;;;;16.99;100.00;102337.22;10238397;28;20047;-75
2023/04/16 15:42:04;;;;;;;21.27;12.45;;;;;;;15.94;100.00;102343.63;10260814;28;20616;-75
2023/04/16 15:47:06;;;;;;;24.50;14.32;;;;;;;15.49;100.00;102347.31;10237180;28;20051;-74
2023/04/16 15:52:07;;;;;;;18.88;12.75;;;;;;;15.50;100.00;102340.69;10270593;28;20045;-75
2023/04/16 15:57:07;;;;;;;25.60;12.25;;;;;;;15.60;100.00;102344.72;10239034;28;20070;-74
2023/04/16 16:02:08;;;;;;;22.13;11.45;;;;;;;15.43;100.00;102342.78;10271041;28;20043;-75
2023/04/16 16:07:10;;;;;;;19.15;11.07;;;;;;;16.20;100.00;102338.44;10250222;28;20499;-75
2023/04/16 16:12:10;;;;;;;21.08;10.68;;;;;;;17.66;100.00;102329.47;10269032;28;20522;-74
2023/04/16 16:17:11;;;;;;;18.77;10.25;;;;;;;17.77;100.00;102342.34;10275592;28;20046;-76
2023/04/16 16:22:11;;;;;;;20.02;10.40;;;;;;;18.07;100.00;102324.22;10260089;28;20039;-74
2023/04/16 16:27:12;;;;;;;19.80;10.57;;;;;;;18.42;100.00;102320.75;10260673;28;20047;-74
2023/04/16 16:32:12;;;;;;;20.58;10.75;;;;;;;18.82;100.00;102321.22;10294273;28;20043;-75
2023/04/16 16:37:13;;;;;;;20.92;11.30;;;;;;;18.57;100.00;102322.78;10275544;28;20042;-74
2023/04/16 16:42:17;;;;;;;25.40;12.43;;;;;;;18.33;100.00;102317.66;10275400;28;20090;-75
2023/04/16 16:47:17;;;;;;;19.77;11.40;;;;;;;17.66;100.00;102335.88;10292305;28;20046;-74
2023/04/16 16:52:19;;;;;;;20.98;12.23;;;;;;;16.71;100.00;102364.13;10273233;28;20038;-74
2023/04/16 16:57:19;;;;;;;27.73;12.55;;;;;;;15.51;100.00;102360.94;10236701;28;20565;-74
2023/04/16 17:02:20;;;;;;;25.27;12.98;;;;;;;14.67;100.00;102373.50;10258461;28;20109;-74
2023/04/16 17:07:20;;;;;;;26.98;14.32;;;;;;;13.53;100.00;102374.72;10291797;28;20439;-74
2023/04/16 17:12:22;;;;;;;29.50;15.48;;;;;;;12.98;100.00;102393.38;10274431;28;20039;-74
2023/04/16 17:17:23;;;;;;;31.15;15.25;;;;;;;12.69;100.00;102405.03;10250394;28;20075;-74
2023/04/16 17:22:23;;;;;;;28.33;15.63;;;;;;;12.41;100.00;102377.94;10274322;28;20038;-74
2023/04/16 17:27:25;;;;;;;31.05;15.82;;;;;;;12.21;100.00;102405.75;10292510;28;20080;-74
2023/04/16 17:32:28;;;;;;;23.55;13.48;;;;;;;12.09;100.00;102402.94;10258598;28;20570;-74
2023/04/16 17:37:29;;;;;;;30.02;15.35;;;;;;;11.86;100.00;102397.16;10291355;28;20066;-74
2023/04/16 17:42:29;;;;;;;30.23;15.57;;;;;;;11.61;100.00;102410.94;10257044;28;20117;-73
2023/04/16 17:47:30;;;;;;;33.38;16.30;;;;;;;11.10;100.00;102423.78;10277038;28;20031;-73
2023/04/16 17:52:30;;;;;;;31.30;16.05;;;;;;;10.66;100.00;102418.00;10262389;28;20030;-74
2023/04/16 17:57:31;;;;;;;30.00;16.17;;;;;;;10.41;100.00;102422.56;10257722;28;20343;-74
2023/04/16 18:02:31;;;;;;;32.67;17.10;;;;;;;10.21;100.00;102436.31;10241702;28;20058;-74
2023/04/16 18:07:33;;;;;;;38.53;18.05;;;;;;;9.90;100.00;102435.94;10273409;28;20101;-75
2023/04/16 18:12:33;;;;;;;34.00;17.80;;;;;;;9.72;100.00;102448.63;10240310;28;20038;-75
2023/04/16 18:17:34;;;;;;;46.22;20.98;;;;;;;9.31;100.00;102442.19;10257026;28;20330;-74
2023/04/16 18:22:34;;;;;;;48.05;22.55;;;;;;;9.41;100.00;102455.53;10274142;28;20047;-73
2023/04/16 18:27:35;;;;;;;46.45;23.40;;;;;;;9.34;100.00;102460.16;10291422;28;20117;-74
2023/04/16 18:32:37;;;;;;;42.45;23.23;;;;;;;9.11;100.00;102479.75;10293266;28;20093;-74
2023/04/16 18:37:38;;;;;;;48.72;24.90;;;;;;;9.01;100.00;102486.47;10250644;28;20058;-74
2023/04/16 18:42:39;;;;;;;41.75;22.30;;;;;;;8.86;100.00;102477.53;10279713;28;20049;-74
2023/04/16 18:47:40;;;;;;;51.20;24.60;;;;;;;8.97;100.00;102501.69;10297786;28;20058;-75
2023/04/16 18:52:40;;;;;;;48.70;24.17;;;;;;;8.88;100.00;102505.63;10280140;28;20362;-73
2023/04/16 18:57:41;;;;;;;47.20;23.92;;;;;;;8.86;100.00;102513.22;10295779;28;20042;-73
2023/04/16 19:02:41;;;;;;;47.05;24.15;;;;;;;8.50;100.00;102450.31;10263383;28;20380;-74
2023/04/16 19:07:42;;;;;;;46.00;24.00;;;;;;;8.86;100.00;102524.22;10249548;28;20434;-73
2023/04/16 19:12:42;;;;;;;49.28;25.45;;;;;;;8.84;100.00;102531.81;10295913;28;20443;-74
2023/04/16 19:17:43;;;;;;;62.63;26.98;;;;;;;8.69;100.00;102507.22;10296908;28;20035;-72
2023/04/16 19:22:43;;;;;;;46.17;25.65;;;;;;;8.78;100.00;102532.59;10280135;28;20101;-73
2023/04/16 19:27:44;;;;;;;59.00;27.90;;;;;;;8.46;100.00;102508.34;10257958;28;20048;-74
2023/04/16 19:32:44;;;;;;;53.40;28.48;;;;;;;8.54;100.00;102543.03;10233220;28;20043;-73
2023/04/16 19:37:45;;;;;;;55.28;28.80;;;;;;;8.47;100.00;102536.63;10274523;28;20609;-75
2023/04/16 19:42:45;;;;;;;54.97;27.77;;;;;;;8.45;100.00;102534.09;10275442;28;20042;-74
2023/04/16 19:47:47;;;;;;;56.33;27.35;;;;;;;8.39;100.00;102529.38;10262062;28;20046;-76
2023/04/16 19:52:48;;;;;;;54.22;26.98;;;;;;;8.36;100.00;102551.72;10278324;28;20039;-75
2023/04/16 19:57:48;;;;;;;56.05;29.55;;;;;;;8.28;100.00;102558.19;10295026;28;20498;-75
2023/04/16 20:02:49;;;;;;;73.03;34.03;;;;;;;8.31;100.00;102569.81;10277527;28;20030;-74
2023/04/16 20:07:49;;;;;;;55.78;29.75;;;;;;;8.17;100.00;102553.25;10263047;28;20045;-76
2023/04/16 20:12:50;;;;;;;53.80;30.77;;;;;;;8.18;100.00;102554.06;10291772;28;20039;-75
2023/04/16 20:17:51;;;;;;;52.05;30.45;;;;;;;8.19;100.00;102567.59;10277478;28;20074;-75
2023/04/16 20:22:51;;;;;;;50.55;28.38;;;;;;;8.28;100.00;102571.91;10294623;28;20042;-74
2023/04/16 20:27:52;;;;;;;57.10;30.90;;;;;;;8.14;100.00;102567.34;10258777;28;20054;-76
2023/04/16 20:32:52;;;;;;;59.65;32.78;;;;;;;8.09;100.00;102569.84;10229025;28;20070;-76
2023/04/16 20:37:53;;;;;;;58.75;31.35;;;;;;;8.15;100.00;102562.72;10267658;28;20039;-76
2023/04/16 20:42:55;;;;;;;55.15;30.23;;;;;;;8.11;100.00;102559.50;10258015;28;20031;-76
2023/04/16 20:47:55;;;;;;;62.45;31.13;;;;;;;8.22;100.00;102575.44;10292259;28;20098;-75
2023/04/16 20:52:56;;;;;;;50.10;26.67;;;;;;;8.15;100.00;102571.78;10260048;28;20090;-74
2023/04/16 20:57:56;;;;;;;56.70;28.42;;;;;;;8.06;100.00;102561.97;10234781;28;20070;-75
2023/04/16 21:02:57;;;;;;;58.13;28.30;;;;;;;8.11;100.00;102586.94;10253570;28;20038;-74
2023/04/16 21:07:57;;;;;;;60.42;30.52;;;;;;;7.99;100.00;102588.50;10245726;28;20066;-74
2023/04/16 21:12:58;;;;;;;62.30;31.98;;;;;;;7.98;100.00;102587.66;10271055;28;20047;-74
2023/04/16 21:17:58;;;;;;;63.63;31.20;;;;;;;7.93;100.00;102589.28;10266009;28;20050;-74
2023/04/16 21:22:59;;;;;;;61.03;30.50;;;;;;;7.98;100.00;102586.78;10265411;28;20090;-74
2023/04/16 21:27:59;;;;;;;59.13;29.00;;;;;;;7.93;100.00;102572.81;10258166;28;20062;-75
2023/04/16 21:33:00;;;;;;;61.47;30.55;;;;;;;7.78;100.00;102549.06;10264056;28;20101;-74
2023/04/16 21:38:00;;;;;;;56.70;29.00;;;;;;;7.86;100.00;102573.59;10287669;28;20049;-74
2023/04/16 21:43:02;;;;;;;61.30;28.95;;;;;;;7.93;100.00;102579.16;10273495;28;20039;-75
2023/04/16 21:48:02;;;;;;;51.28;26.90;;;;;;;7.88;100.00;102587.97;10291813;28;20113;-74
2023/04/16 21:53:05;;;;;;;53.83;28.05;;;;;;;7.83;100.00;102579.50;10274991;28;20124;-75
2023/04/16 21:58:05;;;;;;;56.53;27.10;;;;;;;7.86;100.00;102567.28;10249591;28;20110;-74
2023/04/16 22:03:07;;;;;;;58.15;28.13;;;;;;;7.98;100.00;102581.31;10257990;28;20114;-73
2023/04/16 22:08:08;;;;;;;59.72;28.58;;;;;;;7.86;100.00;102559.91;10295594;28;20054;-75
2023/04/16 22:13:11;;;;;;;53.85;25.52;;;;;;;8.00;100.00;102573.72;10281188;28;20043;-75
2023/04/16 22:18:11;;;;;;;54.65;27.60;;;;;;;7.88;100.00;102555.06;10299126;28;20127;-73
2023/04/16 22:23:12;;;;;;;60.75;29.40;;;;;;;7.98;100.00;102578.56;10266140;28;20392;-74